sensor_id;sensor_type;location;lat;lon;timestamp;P1;durP1;ratioP1;P2;durP2;ratioP2
64820;SDS011;51256;55.654;37.264;2022-11-15T00:00:15;4.07;;;0.82;;
64820;SDS011;51256;55.654;37.264;2022-11-15T00:02:41;8.20;;;1.05;;
64820;SDS011;51256;55.654;37.264;2022-11-15T00:05:07;2.80;;;0.80;;
64820;SDS011;51256;55.654;37.264;2022-11-15T00:07:32;3.08;;;0.80;;
64820;SDS011;51256;55.654;37.264;2022-11-15T00:09:58;4.75;;;1.00;;
64820;SDS011;51256;55.654;37.264;2022-11-15T00:12:23;4.45;;;1.73;;
64820;SDS011;51256;55.654;37.264;2022-11-15T00:14:49;2.53;;;0.90;;
64820;SDS011;51256;55.654;37.264;2022-11-15T00:17:14;2.67;;;0.85;;
64820;SDS011;51256;55.654;37.264;2022-11-15T00:19:39;4.97;;;0.90;;
64820;SDS011;51256;55.654;37.264;2022-11-15T00:22:05;2.75;;;0.70;;
64820;SDS011;51256;55.654;37.264;2022-11-15T00:24:30;2.28;;;0.65;;
64820;SDS011;51256;55.654;37.264;2022-11-15T00:26:56;1.27;;;0.50;;
64820;SDS011;51256;55.654;37.264;2022-11-15T00:29:21;6.10;;;0.93;;
64820;SDS011;51256;55.654;37.264;2022-11-15T00:31:47;1.80;;;0.80;;
64820;SDS011;51256;55.654;37.264;2022-11-15T00:34:13;7.20;;;1.10;;
64820;SDS011;51256;55.654;37.264;2022-11-15T00:36:39;4.18;;;1.63;;
64820;SDS011;51256;55.654;37.264;2022-11-15T00:39:04;3.05;;;0.80;;
64820;SDS011;51256;55.654;37.264;2022-11-15T00:41:30;4.00;;;0.85;;
64820;SDS011;51256;55.654;37.264;2022-11-15T00:43:56;4.30;;;0.80;;
64820;SDS011;51256;55.654;37.264;2022-11-15T00:46:21;3.47;;;1.27;;
64820;SDS011;51256;55.654;37.264;2022-11-15T00:48:47;4.75;;;0.95;;
64820;SDS011;51256;55.654;37.264;2022-11-15T00:51:12;8.93;;;1.25;;
64820;SDS011;51256;55.654;37.264;2022-11-15T00:53:38;2.50;;;0.50;;
64820;SDS011;51256;55.654;37.264;2022-11-15T00:56:03;4.32;;;0.98;;
64820;SDS011;51256;55.654;37.264;2022-11-15T00:58:29;2.95;;;0.73;;
64820;SDS011;51256;55.654;37.264;2022-11-15T01:00:55;4.40;;;1.00;;
64820;SDS011;51256;55.654;37.264;2022-11-15T01:03:21;2.95;;;0.70;;
64820;SDS011;51256;55.654;37.264;2022-11-15T01:05:46;0.90;;;0.43;;
64820;SDS011;51256;55.654;37.264;2022-11-15T01:08:12;5.45;;;0.88;;
64820;SDS011;51256;55.654;37.264;2022-11-15T01:10:39;4.45;;;1.00;;
64820;SDS011;51256;55.654;37.264;2022-11-15T01:13:05;4.07;;;0.85;;
64820;SDS011;51256;55.654;37.264;2022-11-15T01:15:31;1.90;;;0.70;;
64820;SDS011;51256;55.654;37.264;2022-11-15T01:17:56;4.95;;;0.90;;
64820;SDS011;51256;55.654;37.264;2022-11-15T01:20:22;2.13;;;0.80;;
64820;SDS011;51256;55.654;37.264;2022-11-15T01:22:47;2.00;;;0.52;;
64820;SDS011;51256;55.654;37.264;2022-11-15T01:25:12;3.40;;;0.82;;
64820;SDS011;51256;55.654;37.264;2022-11-15T01:27:38;3.58;;;0.90;;
64820;SDS011;51256;55.654;37.264;2022-11-15T01:30:04;1.88;;;0.55;;
64820;SDS011;51256;55.654;37.264;2022-11-15T01:32:30;2.97;;;0.98;;
64820;SDS011;51256;55.654;37.264;2022-11-15T01:34:55;2.70;;;0.95;;
64820;SDS011;51256;55.654;37.264;2022-11-15T01:37:21;2.00;;;0.70;;
64820;SDS011;51256;55.654;37.264;2022-11-15T01:39:46;7.28;;;0.60;;
64820;SDS011;51256;55.654;37.264;2022-11-15T01:42:12;1.67;;;0.50;;
64820;SDS011;51256;55.654;37.264;2022-11-15T01:49:52;1.58;;;0.60;;
64820;SDS011;51256;55.654;37.264;2022-11-15T01:52:39;1.80;;;0.63;;
64820;SDS011;51256;55.654;37.264;2022-11-15T01:55:07;2.38;;;0.47;;
64820;SDS011;51256;55.654;37.264;2022-11-15T01:57:39;2.08;;;0.60;;
64820;SDS011;51256;55.654;37.264;2022-11-15T02:00:08;3.42;;;0.70;;
64820;SDS011;51256;55.654;37.264;2022-11-15T02:02:34;2.42;;;0.65;;
64820;SDS011;51256;55.654;37.264;2022-11-15T02:05:02;3.00;;;0.57;;
64820;SDS011;51256;55.654;37.264;2022-11-15T02:07:28;1.60;;;0.60;;
64820;SDS011;51256;55.654;37.264;2022-11-15T02:09:55;4.00;;;0.80;;
64820;SDS011;51256;55.654;37.264;2022-11-15T02:12:26;4.70;;;0.88;;
64820;SDS011;51256;55.654;37.264;2022-11-15T02:14:52;2.97;;;0.77;;
64820;SDS011;51256;55.654;37.264;2022-11-15T02:17:30;2.83;;;0.50;;
64820;SDS011;51256;55.654;37.264;2022-11-15T02:20:19;6.38;;;0.90;;
64820;SDS011;51256;55.654;37.264;2022-11-15T02:36:56;2.85;;;0.95;;
64820;SDS011;51256;55.654;37.264;2022-11-15T02:39:28;1.42;;;0.50;;
64820;SDS011;51256;55.654;37.264;2022-11-15T02:42:15;3.38;;;0.70;;
64820;SDS011;51256;55.654;37.264;2022-11-15T02:45:05;2.72;;;0.70;;
64820;SDS011;51256;55.654;37.264;2022-11-15T02:47:37;3.10;;;0.80;;
64820;SDS011;51256;55.654;37.264;2022-11-15T02:50:10;3.75;;;0.80;;
64820;SDS011;51256;55.654;37.264;2022-11-15T02:52:37;2.75;;;0.63;;
64820;SDS011;51256;55.654;37.264;2022-11-15T02:55:03;2.65;;;0.70;;
64820;SDS011;51256;55.654;37.264;2022-11-15T03:00:17;6.35;;;1.00;;
64820;SDS011;51256;55.654;37.264;2022-11-15T03:11:08;5.97;;;0.75;;
64820;SDS011;51256;55.654;37.264;2022-11-15T03:22:00;2.53;;;0.95;;
64820;SDS011;51256;55.654;37.264;2022-11-15T03:24:31;6.50;;;1.08;;
64820;SDS011;51256;55.654;37.264;2022-11-15T03:26:59;3.80;;;1.40;;
64820;SDS011;51256;55.654;37.264;2022-11-15T03:29:30;1.50;;;0.60;;
64820;SDS011;51256;55.654;37.264;2022-11-15T03:32:11;2.95;;;1.10;;
64820;SDS011;51256;55.654;37.264;2022-11-15T03:34:45;4.85;;;1.17;;
64820;SDS011;51256;55.654;37.264;2022-11-15T03:37:15;2.00;;;0.75;;
64820;SDS011;51256;55.654;37.264;2022-11-15T03:39:42;3.35;;;1.00;;
64820;SDS011;51256;55.654;37.264;2022-11-15T03:45:14;6.30;;;1.10;;
64820;SDS011;51256;55.654;37.264;2022-11-15T03:50:28;3.15;;;0.75;;
64820;SDS011;51256;55.654;37.264;2022-11-15T03:52:54;1.73;;;0.82;;
64820;SDS011;51256;55.654;37.264;2022-11-15T03:55:21;4.35;;;0.75;;
64820;SDS011;51256;55.654;37.264;2022-11-15T03:57:49;2.95;;;0.88;;
64820;SDS011;51256;55.654;37.264;2022-11-15T04:00:18;5.93;;;0.88;;
64820;SDS011;51256;55.654;37.264;2022-11-15T04:02:44;2.60;;;0.68;;
64820;SDS011;51256;55.654;37.264;2022-11-15T04:05:09;2.53;;;0.80;;
64820;SDS011;51256;55.654;37.264;2022-11-15T04:07:35;2.97;;;0.50;;
64820;SDS011;51256;55.654;37.264;2022-11-15T04:10:01;5.35;;;0.70;;
64820;SDS011;51256;55.654;37.264;2022-11-15T04:12:33;4.60;;;0.93;;
64820;SDS011;51256;55.654;37.264;2022-11-15T04:15:02;7.07;;;0.90;;
64820;SDS011;51256;55.654;37.264;2022-11-15T04:17:39;1.90;;;0.80;;
64820;SDS011;51256;55.654;37.264;2022-11-15T04:20:24;1.58;;;0.55;;
64820;SDS011;51256;55.654;37.264;2022-11-15T04:23:11;1.25;;;0.47;;
64820;SDS011;51256;55.654;37.264;2022-11-15T04:26:10;1.77;;;0.63;;
64820;SDS011;51256;55.654;37.264;2022-11-15T04:28:37;3.72;;;0.90;;
64820;SDS011;51256;55.654;37.264;2022-11-15T04:31:23;3.22;;;0.90;;
64820;SDS011;51256;55.654;37.264;2022-11-15T04:33:49;4.22;;;0.70;;
64820;SDS011;51256;55.654;37.264;2022-11-15T04:36:15;2.38;;;0.77;;
64820;SDS011;51256;55.654;37.264;2022-11-15T04:38:58;2.47;;;0.95;;
64820;SDS011;51256;55.654;37.264;2022-11-15T04:41:24;3.45;;;1.00;;
64820;SDS011;51256;55.654;37.264;2022-11-15T04:43:49;4.70;;;0.80;;
64820;SDS011;51256;55.654;37.264;2022-11-15T04:46:15;8.25;;;0.98;;
64820;SDS011;51256;55.654;37.264;2022-11-15T04:48:40;3.03;;;1.10;;
64820;SDS011;51256;55.654;37.264;2022-11-15T04:51:06;3.22;;;0.90;;
64820;SDS011;51256;55.654;37.264;2022-11-15T04:53:31;1.90;;;0.70;;
64820;SDS011;51256;55.654;37.264;2022-11-15T04:55:57;5.60;;;1.20;;
64820;SDS011;51256;55.654;37.264;2022-11-15T04:58:22;8.13;;;1.40;;
64820;SDS011;51256;55.654;37.264;2022-11-15T05:00:48;13.05;;;3.10;;
64820;SDS011;51256;55.654;37.264;2022-11-15T05:03:13;6.55;;;1.80;;
64820;SDS011;51256;55.654;37.264;2022-11-15T05:05:58;6.50;;;1.67;;
64820;SDS011;51256;55.654;37.264;2022-11-15T05:08:24;4.10;;;0.90;;
64820;SDS011;51256;55.654;37.264;2022-11-15T05:10:50;2.83;;;0.75;;
64820;SDS011;51256;55.654;37.264;2022-11-15T05:13:15;8.13;;;2.40;;
64820;SDS011;51256;55.654;37.264;2022-11-15T05:15:41;6.35;;;1.88;;
64820;SDS011;51256;55.654;37.264;2022-11-15T05:18:07;5.65;;;1.73;;
64820;SDS011;51256;55.654;37.264;2022-11-15T05:20:32;3.70;;;1.00;;
64820;SDS011;51256;55.654;37.264;2022-11-15T05:22:58;10.77;;;2.30;;
64820;SDS011;51256;55.654;37.264;2022-11-15T05:25:23;6.72;;;1.52;;
64820;SDS011;51256;55.654;37.264;2022-11-15T05:27:49;7.43;;;2.05;;
64820;SDS011;51256;55.654;37.264;2022-11-15T05:30:15;5.25;;;1.52;;
64820;SDS011;51256;55.654;37.264;2022-11-15T05:32:41;4.50;;;1.30;;
64820;SDS011;51256;55.654;37.264;2022-11-15T05:35:08;3.90;;;1.00;;
64820;SDS011;51256;55.654;37.264;2022-11-15T05:37:37;4.50;;;1.55;;
64820;SDS011;51256;55.654;37.264;2022-11-15T05:40:02;10.43;;;1.65;;
64820;SDS011;51256;55.654;37.264;2022-11-15T05:42:28;8.00;;;1.20;;
64820;SDS011;51256;55.654;37.264;2022-11-15T05:44:54;3.65;;;1.42;;
64820;SDS011;51256;55.654;37.264;2022-11-15T05:47:24;6.07;;;1.67;;
64820;SDS011;51256;55.654;37.264;2022-11-15T05:49:54;3.92;;;1.27;;
64820;SDS011;51256;55.654;37.264;2022-11-15T05:52:22;5.75;;;1.30;;
64820;SDS011;51256;55.654;37.264;2022-11-15T05:54:53;3.97;;;1.30;;
64820;SDS011;51256;55.654;37.264;2022-11-15T05:57:21;2.90;;;1.20;;
64820;SDS011;51256;55.654;37.264;2022-11-15T05:59:47;4.78;;;1.45;;
64820;SDS011;51256;55.654;37.264;2022-11-15T06:02:12;6.00;;;1.27;;
64820;SDS011;51256;55.654;37.264;2022-11-15T06:04:38;5.03;;;1.17;;
64820;SDS011;51256;55.654;37.264;2022-11-15T06:07:03;3.80;;;1.30;;
64820;SDS011;51256;55.654;37.264;2022-11-15T06:09:29;3.47;;;1.00;;
64820;SDS011;51256;55.654;37.264;2022-11-15T06:11:54;8.20;;;1.23;;
64820;SDS011;51256;55.654;37.264;2022-11-15T06:14:20;5.60;;;1.20;;
64820;SDS011;51256;55.654;37.264;2022-11-15T06:16:45;6.35;;;1.35;;
64820;SDS011;51256;55.654;37.264;2022-11-15T06:19:11;2.85;;;1.13;;
64820;SDS011;51256;55.654;37.264;2022-11-15T06:21:39;4.53;;;1.50;;
64820;SDS011;51256;55.654;37.264;2022-11-15T06:24:04;5.65;;;1.17;;
64820;SDS011;51256;55.654;37.264;2022-11-15T06:26:31;4.53;;;1.33;;
64820;SDS011;51256;55.654;37.264;2022-11-15T06:28:56;5.55;;;1.10;;
64820;SDS011;51256;55.654;37.264;2022-11-15T06:31:22;2.47;;;0.98;;
64820;SDS011;51256;55.654;37.264;2022-11-15T06:33:47;5.70;;;1.50;;
64820;SDS011;51256;55.654;37.264;2022-11-15T06:36:14;3.75;;;1.15;;
64820;SDS011;51256;55.654;37.264;2022-11-15T06:38:42;3.35;;;1.17;;
64820;SDS011;51256;55.654;37.264;2022-11-15T06:41:08;3.45;;;1.08;;
64820;SDS011;51256;55.654;37.264;2022-11-15T06:43:35;6.40;;;1.50;;
64820;SDS011;51256;55.654;37.264;2022-11-15T06:46:02;6.13;;;1.33;;
64820;SDS011;51256;55.654;37.264;2022-11-15T06:48:29;3.83;;;1.42;;
64820;SDS011;51256;55.654;37.264;2022-11-15T06:50:56;15.15;;;1.70;;
64820;SDS011;51256;55.654;37.264;2022-11-15T06:53:23;5.82;;;1.52;;
64820;SDS011;51256;55.654;37.264;2022-11-15T06:55:49;16.13;;;4.90;;
64820;SDS011;51256;55.654;37.264;2022-11-15T06:58:15;15.23;;;1.40;;
64820;SDS011;51256;55.654;37.264;2022-11-15T07:00:41;8.65;;;1.92;;
64820;SDS011;51256;55.654;37.264;2022-11-15T07:03:06;7.38;;;1.38;;
64820;SDS011;51256;55.654;37.264;2022-11-15T07:05:32;5.25;;;1.20;;
64820;SDS011;51256;55.654;37.264;2022-11-15T07:07:58;8.18;;;1.50;;
64820;SDS011;51256;55.654;37.264;2022-11-15T07:10:25;5.43;;;1.48;;
64820;SDS011;51256;55.654;37.264;2022-11-15T07:12:51;4.57;;;1.40;;
64820;SDS011;51256;55.654;37.264;2022-11-15T07:15:18;9.35;;;1.38;;
64820;SDS011;51256;55.654;37.264;2022-11-15T07:17:45;7.35;;;1.73;;
64820;SDS011;51256;55.654;37.264;2022-11-15T07:20:11;4.20;;;1.60;;
64820;SDS011;51256;55.654;37.264;2022-11-15T07:22:38;10.02;;;1.95;;
64820;SDS011;51256;55.654;37.264;2022-11-15T07:25:04;6.20;;;1.85;;
64820;SDS011;51256;55.654;37.264;2022-11-15T07:27:29;7.38;;;2.00;;
64820;SDS011;51256;55.654;37.264;2022-11-15T07:29:55;7.85;;;2.00;;
64820;SDS011;51256;55.654;37.264;2022-11-15T07:32:20;15.45;;;2.80;;
64820;SDS011;51256;55.654;37.264;2022-11-15T07:34:46;12.35;;;2.50;;
64820;SDS011;51256;55.654;37.264;2022-11-15T07:37:11;8.27;;;2.35;;
64820;SDS011;51256;55.654;37.264;2022-11-15T07:39:37;7.93;;;1.55;;
64820;SDS011;51256;55.654;37.264;2022-11-15T07:42:02;12.13;;;2.10;;
64820;SDS011;51256;55.654;37.264;2022-11-15T07:44:46;7.90;;;1.90;;
64820;SDS011;51256;55.654;37.264;2022-11-15T07:47:11;6.18;;;1.77;;
64820;SDS011;51256;55.654;37.264;2022-11-15T07:49:37;10.90;;;1.70;;
64820;SDS011;51256;55.654;37.264;2022-11-15T07:52:03;5.72;;;1.58;;
64820;SDS011;51256;55.654;37.264;2022-11-15T07:54:28;12.70;;;2.22;;
64820;SDS011;51256;55.654;37.264;2022-11-15T07:56:54;12.05;;;2.17;;
64820;SDS011;51256;55.654;37.264;2022-11-15T07:59:19;7.80;;;1.73;;
64820;SDS011;51256;55.654;37.264;2022-11-15T08:01:44;7.32;;;1.90;;
64820;SDS011;51256;55.654;37.264;2022-11-15T08:04:10;10.07;;;2.10;;
64820;SDS011;51256;55.654;37.264;2022-11-15T08:06:36;9.23;;;1.95;;
64820;SDS011;51256;55.654;37.264;2022-11-15T08:09:02;9.57;;;2.17;;
64820;SDS011;51256;55.654;37.264;2022-11-15T08:11:28;6.18;;;1.90;;
64820;SDS011;51256;55.654;37.264;2022-11-15T08:13:54;7.30;;;2.28;;
64820;SDS011;51256;55.654;37.264;2022-11-15T08:16:19;9.40;;;2.00;;
64820;SDS011;51256;55.654;37.264;2022-11-15T08:18:45;7.07;;;1.90;;
64820;SDS011;51256;55.654;37.264;2022-11-15T08:21:11;15.70;;;2.10;;
64820;SDS011;51256;55.654;37.264;2022-11-15T08:23:42;8.32;;;1.83;;
64820;SDS011;51256;55.654;37.264;2022-11-15T08:26:08;12.38;;;2.42;;
64820;SDS011;51256;55.654;37.264;2022-11-15T08:28:33;9.38;;;2.20;;
64820;SDS011;51256;55.654;37.264;2022-11-15T08:30:59;8.27;;;2.08;;
64820;SDS011;51256;55.654;37.264;2022-11-15T08:33:24;7.55;;;2.08;;
64820;SDS011;51256;55.654;37.264;2022-11-15T08:35:50;5.55;;;2.22;;
64820;SDS011;51256;55.654;37.264;2022-11-15T08:38:15;7.90;;;2.30;;
64820;SDS011;51256;55.654;37.264;2022-11-15T08:40:41;6.38;;;1.90;;
64820;SDS011;51256;55.654;37.264;2022-11-15T08:43:06;6.72;;;1.98;;
64820;SDS011;51256;55.654;37.264;2022-11-15T08:45:33;5.55;;;1.90;;
64820;SDS011;51256;55.654;37.264;2022-11-15T08:48:00;10.98;;;2.15;;
64820;SDS011;51256;55.654;37.264;2022-11-15T08:50:27;7.53;;;2.17;;
64820;SDS011;51256;55.654;37.264;2022-11-15T08:52:52;9.20;;;3.33;;
64820;SDS011;51256;55.654;37.264;2022-11-15T08:55:18;9.85;;;2.20;;
64820;SDS011;51256;55.654;37.264;2022-11-15T08:57:44;12.23;;;2.40;;
64820;SDS011;51256;55.654;37.264;2022-11-15T09:00:09;8.18;;;2.05;;
64820;SDS011;51256;55.654;37.264;2022-11-15T09:02:37;6.97;;;1.80;;
64820;SDS011;51256;55.654;37.264;2022-11-15T09:05:04;10.35;;;2.30;;
64820;SDS011;51256;55.654;37.264;2022-11-15T09:07:30;8.57;;;1.90;;
64820;SDS011;51256;55.654;37.264;2022-11-15T09:09:56;6.78;;;1.63;;
64820;SDS011;51256;55.654;37.264;2022-11-15T09:12:23;10.13;;;2.10;;
64820;SDS011;51256;55.654;37.264;2022-11-15T09:14:49;7.10;;;2.00;;
64820;SDS011;51256;55.654;37.264;2022-11-15T09:17:15;6.05;;;1.90;;
64820;SDS011;51256;55.654;37.264;2022-11-15T09:19:41;13.13;;;2.55;;
64820;SDS011;51256;55.654;37.264;2022-11-15T09:22:07;6.47;;;2.38;;
64820;SDS011;51256;55.654;37.264;2022-11-15T09:24:33;12.43;;;3.08;;
64820;SDS011;51256;55.654;37.264;2022-11-15T09:27:00;9.48;;;2.38;;
64820;SDS011;51256;55.654;37.264;2022-11-15T09:29:25;14.48;;;3.08;;
64820;SDS011;51256;55.654;37.264;2022-11-15T09:31:53;17.15;;;3.58;;
64820;SDS011;51256;55.654;37.264;2022-11-15T09:34:19;11.30;;;2.50;;
64820;SDS011;51256;55.654;37.264;2022-11-15T09:36:46;11.57;;;1.80;;
64820;SDS011;51256;55.654;37.264;2022-11-15T09:39:11;9.80;;;2.53;;
64820;SDS011;51256;55.654;37.264;2022-11-15T09:50:15;10.50;;;2.28;;
64820;SDS011;51256;55.654;37.264;2022-11-15T09:55:11;7.95;;;2.28;;
64820;SDS011;51256;55.654;37.264;2022-11-15T09:57:46;8.40;;;2.53;;
64820;SDS011;51256;55.654;37.264;2022-11-15T10:00:33;6.53;;;2.17;;
64820;SDS011;51256;55.654;37.264;2022-11-15T10:03:10;9.32;;;1.85;;
64820;SDS011;51256;55.654;37.264;2022-11-15T10:05:43;8.98;;;2.53;;
64820;SDS011;51256;55.654;37.264;2022-11-15T10:10:46;11.20;;;2.28;;
64820;SDS011;51256;55.654;37.264;2022-11-15T10:13:23;11.48;;;2.35;;
64820;SDS011;51256;55.654;37.264;2022-11-15T10:15:52;4.85;;;1.60;;
64820;SDS011;51256;55.654;37.264;2022-11-15T10:20:48;10.82;;;2.85;;
64820;SDS011;51256;55.654;37.264;2022-11-15T10:23:19;5.03;;;1.60;;
64820;SDS011;51256;55.654;37.264;2022-11-15T10:25:47;6.03;;;1.60;;
64820;SDS011;51256;55.654;37.264;2022-11-15T10:28:33;6.10;;;1.60;;
64820;SDS011;51256;55.654;37.264;2022-11-15T10:30:59;8.00;;;1.63;;
64820;SDS011;51256;55.654;37.264;2022-11-15T10:36:32;11.90;;;1.95;;
64820;SDS011;51256;55.654;37.264;2022-11-15T10:43:41;7.68;;;1.85;;
64820;SDS011;51256;55.654;37.264;2022-11-15T10:46:20;5.68;;;1.70;;
64820;SDS011;51256;55.654;37.264;2022-11-15T10:48:47;4.55;;;1.60;;
64820;SDS011;51256;55.654;37.264;2022-11-15T10:51:27;6.88;;;1.70;;
64820;SDS011;51256;55.654;37.264;2022-11-15T10:53:54;7.80;;;1.23;;
64820;SDS011;51256;55.654;37.264;2022-11-15T10:56:22;10.13;;;1.60;;
64820;SDS011;51256;55.654;37.264;2022-11-15T10:58:51;5.18;;;1.52;;
64820;SDS011;51256;55.654;37.264;2022-11-15T11:01:26;7.95;;;1.80;;
64820;SDS011;51256;55.654;37.264;2022-11-15T11:04:07;5.13;;;1.90;;
64820;SDS011;51256;55.654;37.264;2022-11-15T11:06:46;15.68;;;1.80;;
64820;SDS011;51256;55.654;37.264;2022-11-15T11:09:21;13.55;;;2.20;;
64820;SDS011;51256;55.654;37.264;2022-11-15T11:14:22;8.93;;;1.70;;
64820;SDS011;51256;55.654;37.264;2022-11-15T11:17:02;6.65;;;2.33;;
64820;SDS011;51256;55.654;37.264;2022-11-15T11:19:43;7.60;;;1.80;;
64820;SDS011;51256;55.654;37.264;2022-11-15T11:25:01;4.10;;;1.80;;
64820;SDS011;51256;55.654;37.264;2022-11-15T11:30:59;10.38;;;2.42;;
64820;SDS011;51256;55.654;37.264;2022-11-15T11:36:40;6.47;;;2.33;;
64820;SDS011;51256;55.654;37.264;2022-11-15T11:48:12;11.30;;;2.90;;
64820;SDS011;51256;55.654;37.264;2022-11-15T11:50:39;10.18;;;3.40;;
64820;SDS011;51256;55.654;37.264;2022-11-15T11:55:52;6.85;;;2.75;;
64820;SDS011;51256;55.654;37.264;2022-11-15T12:00:57;8.15;;;2.40;;
64820;SDS011;51256;55.654;37.264;2022-11-15T12:08:52;7.88;;;2.30;;
64820;SDS011;51256;55.654;37.264;2022-11-15T12:11:26;6.60;;;2.58;;
64820;SDS011;51256;55.654;37.264;2022-11-15T12:13:59;6.03;;;2.60;;
64820;SDS011;51256;55.654;37.264;2022-11-15T12:16:30;8.93;;;2.95;;
64820;SDS011;51256;55.654;37.264;2022-11-15T12:19:02;10.65;;;3.10;;
64820;SDS011;51256;55.654;37.264;2022-11-15T12:24:01;9.13;;;3.55;;
64820;SDS011;51256;55.654;37.264;2022-11-15T12:26:33;9.50;;;3.13;;
64820;SDS011;51256;55.654;37.264;2022-11-15T12:29:12;8.18;;;2.88;;
64820;SDS011;51256;55.654;37.264;2022-11-15T12:36:45;9.80;;;2.95;;
64820;SDS011;51256;55.654;37.264;2022-11-15T12:39:12;8.02;;;2.85;;
64820;SDS011;51256;55.654;37.264;2022-11-15T12:41:39;7.45;;;2.90;;
64820;SDS011;51256;55.654;37.264;2022-11-15T12:44:13;10.02;;;3.97;;
64820;SDS011;51256;55.654;37.264;2022-11-15T13:02:18;7.22;;;2.42;;
64820;SDS011;51256;55.654;37.264;2022-11-15T13:04:46;8.32;;;2.28;;
64820;SDS011;51256;55.654;37.264;2022-11-15T13:09:59;7.88;;;2.40;;
64820;SDS011;51256;55.654;37.264;2022-11-15T13:14:56;7.70;;;2.33;;
64820;SDS011;51256;55.654;37.264;2022-11-15T13:19:59;7.00;;;2.13;;
64820;SDS011;51256;55.654;37.264;2022-11-15T13:22:26;7.55;;;2.90;;
64820;SDS011;51256;55.654;37.264;2022-11-15T13:25:15;9.55;;;2.97;;
64820;SDS011;51256;55.654;37.264;2022-11-15T13:27:50;10.73;;;2.95;;
64820;SDS011;51256;55.654;37.264;2022-11-15T13:30:19;10.00;;;2.85;;
64820;SDS011;51256;55.654;37.264;2022-11-15T13:32:47;9.75;;;2.78;;
64820;SDS011;51256;55.654;37.264;2022-11-15T13:35:20;6.82;;;3.05;;
64820;SDS011;51256;55.654;37.264;2022-11-15T13:37:48;6.70;;;2.25;;
64820;SDS011;51256;55.654;37.264;2022-11-15T13:40:22;9.68;;;2.40;;
64820;SDS011;51256;55.654;37.264;2022-11-15T13:42:47;8.10;;;2.45;;
64820;SDS011;51256;55.654;37.264;2022-11-15T13:45:14;6.00;;;2.17;;
64820;SDS011;51256;55.654;37.264;2022-11-15T13:47:42;7.57;;;2.00;;
64820;SDS011;51256;55.654;37.264;2022-11-15T13:50:11;7.60;;;2.30;;
64820;SDS011;51256;55.654;37.264;2022-11-15T13:52:38;5.93;;;1.45;;
64820;SDS011;51256;55.654;37.264;2022-11-15T13:55:15;7.60;;;2.30;;
64820;SDS011;51256;55.654;37.264;2022-11-15T14:00:39;10.13;;;2.67;;
64820;SDS011;51256;55.654;37.264;2022-11-15T14:03:27;6.70;;;2.85;;
64820;SDS011;51256;55.654;37.264;2022-11-15T14:08:38;6.63;;;2.72;;
64820;SDS011;51256;55.654;37.264;2022-11-15T14:11:05;8.55;;;2.75;;
64820;SDS011;51256;55.654;37.264;2022-11-15T14:16:36;5.60;;;2.70;;
64820;SDS011;51256;55.654;37.264;2022-11-15T14:19:55;6.75;;;2.95;;
64820;SDS011;51256;55.654;37.264;2022-11-15T14:24:39;5.63;;;2.42;;
64820;SDS011;51256;55.654;37.264;2022-11-15T14:27:24;7.22;;;2.63;;
64820;SDS011;51256;55.654;37.264;2022-11-15T14:29:53;12.68;;;3.35;;
64820;SDS011;51256;55.654;37.264;2022-11-15T14:32:23;9.80;;;3.42;;
64820;SDS011;51256;55.654;37.264;2022-11-15T14:34:57;7.88;;;2.70;;
64820;SDS011;51256;55.654;37.264;2022-11-15T14:37:28;8.70;;;3.05;;
64820;SDS011;51256;55.654;37.264;2022-11-15T14:39:59;6.32;;;2.83;;
64820;SDS011;51256;55.654;37.264;2022-11-15T14:42:25;10.38;;;2.90;;
64820;SDS011;51256;55.654;37.264;2022-11-15T14:44:51;8.40;;;2.80;;
64820;SDS011;51256;55.654;37.264;2022-11-15T14:47:17;12.65;;;3.28;;
64820;SDS011;51256;55.654;37.264;2022-11-15T14:49:43;8.52;;;3.67;;
64820;SDS011;51256;55.654;37.264;2022-11-15T14:55:23;9.85;;;3.67;;
64820;SDS011;51256;55.654;37.264;2022-11-15T14:57:50;14.80;;;3.97;;
64820;SDS011;51256;55.654;37.264;2022-11-15T15:00:17;9.10;;;3.85;;
64820;SDS011;51256;55.654;37.264;2022-11-15T15:02:44;10.65;;;4.10;;
64820;SDS011;51256;55.654;37.264;2022-11-15T15:05:18;9.55;;;4.07;;
64820;SDS011;51256;55.654;37.264;2022-11-15T15:07:44;11.57;;;4.10;;
64820;SDS011;51256;55.654;37.264;2022-11-15T15:10:10;12.10;;;4.47;;
64820;SDS011;51256;55.654;37.264;2022-11-15T15:12:36;10.05;;;4.95;;
64820;SDS011;51256;55.654;37.264;2022-11-15T15:15:01;11.07;;;4.85;;
64820;SDS011;51256;55.654;37.264;2022-11-15T15:17:27;10.40;;;4.70;;
64820;SDS011;51256;55.654;37.264;2022-11-15T15:19:53;14.43;;;5.10;;
64820;SDS011;51256;55.654;37.264;2022-11-15T15:22:18;10.55;;;5.32;;
64820;SDS011;51256;55.654;37.264;2022-11-15T15:24:50;8.98;;;4.95;;
64820;SDS011;51256;55.654;37.264;2022-11-15T15:27:16;9.20;;;5.07;;
64820;SDS011;51256;55.654;37.264;2022-11-15T15:29:41;14.10;;;5.45;;
64820;SDS011;51256;55.654;37.264;2022-11-15T15:32:07;17.15;;;6.10;;
64820;SDS011;51256;55.654;37.264;2022-11-15T15:34:34;13.52;;;5.75;;
64820;SDS011;51256;55.654;37.264;2022-11-15T15:39:52;12.77;;;5.33;;
64820;SDS011;51256;55.654;37.264;2022-11-15T15:42:19;12.45;;;5.53;;
64820;SDS011;51256;55.654;37.264;2022-11-15T15:44:45;14.70;;;5.60;;
64820;SDS011;51256;55.654;37.264;2022-11-15T15:47:12;13.25;;;5.60;;
64820;SDS011;51256;55.654;37.264;2022-11-15T15:49:48;11.02;;;5.50;;
64820;SDS011;51256;55.654;37.264;2022-11-15T15:52:15;13.88;;;5.10;;
64820;SDS011;51256;55.654;37.264;2022-11-15T15:54:40;14.77;;;5.70;;
64820;SDS011;51256;55.654;37.264;2022-11-15T15:57:07;15.20;;;6.03;;
64820;SDS011;51256;55.654;37.264;2022-11-15T15:59:35;12.68;;;5.43;;
64820;SDS011;51256;55.654;37.264;2022-11-15T16:02:01;14.98;;;5.93;;
64820;SDS011;51256;55.654;37.264;2022-11-15T16:04:26;16.85;;;5.97;;
64820;SDS011;51256;55.654;37.264;2022-11-15T16:06:54;13.63;;;6.07;;
64820;SDS011;51256;55.654;37.264;2022-11-15T16:09:23;12.65;;;5.43;;
64820;SDS011;51256;55.654;37.264;2022-11-15T16:12:09;13.20;;;5.13;;
64820;SDS011;51256;55.654;37.264;2022-11-15T16:14:34;16.77;;;5.65;;
64820;SDS011;51256;55.654;37.264;2022-11-15T16:17:00;12.57;;;5.32;;
64820;SDS011;51256;55.654;37.264;2022-11-15T16:19:25;11.63;;;5.38;;
64820;SDS011;51256;55.654;37.264;2022-11-15T16:21:51;13.00;;;5.68;;
64820;SDS011;51256;55.654;37.264;2022-11-15T16:24:20;11.57;;;5.22;;
64820;SDS011;51256;55.654;37.264;2022-11-15T16:26:46;15.15;;;6.00;;
64820;SDS011;51256;55.654;37.264;2022-11-15T16:29:13;14.00;;;5.30;;
64820;SDS011;51256;55.654;37.264;2022-11-15T16:31:38;12.50;;;4.85;;
64820;SDS011;51256;55.654;37.264;2022-11-15T16:34:04;12.63;;;4.97;;
64820;SDS011;51256;55.654;37.264;2022-11-15T16:36:32;12.07;;;4.80;;
64820;SDS011;51256;55.654;37.264;2022-11-15T16:38:59;14.18;;;5.30;;
64820;SDS011;51256;55.654;37.264;2022-11-15T16:41:25;12.20;;;5.05;;
64820;SDS011;51256;55.654;37.264;2022-11-15T16:43:51;15.35;;;5.82;;
64820;SDS011;51256;55.654;37.264;2022-11-15T16:46:20;11.48;;;5.40;;
64820;SDS011;51256;55.654;37.264;2022-11-15T16:48:47;11.43;;;5.03;;
64820;SDS011;51256;55.654;37.264;2022-11-15T16:51:14;14.95;;;5.00;;
64820;SDS011;51256;55.654;37.264;2022-11-15T16:53:40;13.23;;;4.95;;
64820;SDS011;51256;55.654;37.264;2022-11-15T16:56:15;9.43;;;4.57;;
64820;SDS011;51256;55.654;37.264;2022-11-15T16:58:48;12.32;;;4.40;;
64820;SDS011;51256;55.654;37.264;2022-11-15T17:01:18;9.85;;;4.68;;
64820;SDS011;51256;55.654;37.264;2022-11-15T17:03:47;13.93;;;5.28;;
64820;SDS011;51256;55.654;37.264;2022-11-15T17:06:12;12.93;;;5.15;;